Pearl Venus — 3FWZ6 — position and weather

sailwx.info

Track history (hours):
 
Tides and Currents Weather Stations Pressure Air Temp Water Temp Dewpoint Dewpoint Depression Visibility Wind Speed Wind Dir Waves Ship Positions

Pearl Venus

Last reported at 2017-Nov-18 20:15 UTC. Time now 2017-Nov-21 01:06 UTC.
Position N 47°06' W 007°14'.

Length 190 m; draft 9.6 m.

Type: Cargo ship. MMSI: 355236000.

Date/timePositionNaut miles runAvg speedWind from/ knotsBaromVisibWave heightAir tempDewpointWater temp
2017-Nov-18 20:15N 47°06' W 007°14'612.7
2017-Nov-18 19:45N 47°11' W 007°10'1912.7
2017-Nov-18 18:14N 47°28' W 006°56'1514.3
2017-Nov-18 17:10N 47°42' W 006°45'1911.5
2017-Nov-18 15:29N 47°59' W 006°31'611.4
2017-Nov-18 14:56N 48°04' W 006°27'511.1
2017-Nov-18 14:30N 48°09' W 006°24'611.2
2017-Nov-18 14:00N 48°13' W 006°20'611.3
2017-Nov-18 13:30N 48°18' W 006°16'1011.7
2017-Nov-18 12:40N 48°27' W 006°09'412.2
2017-Nov-18 12:22N 48°31' W 006°06'512.6
2017-Nov-18 11:59N 48°35' W 006°03'713.1
2017-Nov-18 11:27N 48°41' W 005°58'1013.3
2017-Nov-18 10:41N 48°50' W 005°50'613.9
2017-Nov-18 10:15N 48°55' W 005°45'714.1
2017-Nov-18 09:43N 48°59' W 005°36'414.2
2017-Nov-18 09:27N 49°02' W 005°32'614.0
2017-Nov-18 08:59N 49°05' W 005°24'913.6
2017-Nov-18 08:21N 49°10' W 005°13'1012.9
2017-Nov-18 07:35N 49°16' W 005°01'112.6
2017-Nov-18 07:30N 49°17' W 004°59'612.2
2017-Nov-18 07:00N 49°20' W 004°51'611.8
2017-Nov-18 06:31N 49°22' W 004°43'611.3
2017-Nov-18 05:57N 49°25' W 004°34'511.1
2017-Nov-18 05:28N 49°28' W 004°27'510.7
2017-Nov-18 04:59N 49°30' W 004°20'610.7
2017-Nov-18 04:27N 49°33' W 004°12'610.8
2017-Nov-18 03:55N 49°36' W 004°04'511.2
2017-Nov-18 03:30N 49°38' W 003°58'611.6
2017-Nov-18 02:58N 49°41' W 003°50'612.1
2017-Nov-18 02:30N 49°43' W 003°42'712.7
2017-Nov-18 01:59N 49°46' W 003°33'713.4
2017-Nov-18 01:30N 49°50' W 003°24'713.9
2017-Nov-18 01:00N 49°53' W 003°15'714.2
2017-Nov-18 00:30N 49°56' W 003°05'714.2
2017-Nov-18 00:00N 49°59' W 002°55'714.0
2017-Nov-17 23:30N 50°01' W 002°45'713.5
2017-Nov-17 23:00N 50°03' W 002°35'1812.1
2017-Nov-17 21:33N 50°08' W 002°08'010.7
2017-Nov-17 21:30N 50°08' W 002°07'510.5
2017-Nov-17 21:00N 50°08' W 001°59'5 9.9
2017-Nov-17 20:30N 50°10' W 001°52'5 9.4
2017-Nov-17 19:59N 50°11' W 001°45'4 9.1
2017-Nov-17 19:30N 50°12' W 001°38'5 9.1
2017-Nov-17 19:00N 50°14' W 001°31'5 9.3
2017-Nov-17 18:30N 50°15' W 001°24'1510.6
2017-Nov-17 17:07N 50°19' W 001°02'212.3
2017-Nov-17 16:58N 50°19' W 000°59'613.0
2017-Nov-17 16:28N 50°22' W 000°50'1513.7
2017-Nov-17 15:21N 50°26' W 000°27'514.0
2017-Nov-17 15:00N 50°27' W 000°19'714.0
2017-Nov-17 14:30N 50°29' W 000°08'714.0
2017-Nov-17 14:00N 50°30' E 000°02'714.0
2017-Nov-17 13:30N 50°32' E 000°13'713.9
2017-Nov-17 13:00N 50°34' E 000°23'713.6
2017-Nov-17 12:30N 50°36' E 000°33'713.2
2017-Nov-17 12:00N 50°40' E 000°42'612.7
2017-Nov-17 11:30N 50°43' E 000°51'612.1
2017-Nov-17 11:00N 50°46' E 000°59'611.7
2017-Nov-17 10:30N 50°50' E 001°06'611.6
2017-Nov-17 10:00N 50°53' E 001°14'611.9
2017-Nov-17 09:30N 50°57' E 001°21'613.0
2017-Nov-17 09:00N 51°02' E 001°27'714.2
2017-Nov-17 08:30N 51°07' E 001°36'714.7
2017-Nov-17 08:00N 51°12' E 001°44'815.3
2017-Nov-17 07:30N 51°19' E 001°50'815.1
2017-Nov-17 07:00N 51°25' E 001°56'714.6
2017-Nov-17 06:30N 51°31' E 002°04'714.2
2017-Nov-17 06:00N 51°36' E 002°12'713.7
2017-Nov-17 05:30N 51°41' E 002°19'41611.3
2017-Nov-15 16:51N 57°29' E 008°51'410.6
2017-Nov-15 16:30N 57°31' E 008°57'510.4
2017-Nov-15 15:59N 57°34' E 009°05'510.6
2017-Nov-15 15:29N 57°36' E 009°14'510.8
2017-Nov-15 15:00N 57°39' E 009°22'3110.9
2017-Nov-15 12:09N 57°49' E 010°17'210.4
2017-Nov-15 11:58N 57°49' E 010°21'510.1
2017-Nov-15 11:30N 57°49' E 010°30'510.0
2017-Nov-15 11:00N 57°49' E 010°39'5 9.7
2017-Nov-15 10:30N 57°47' E 010°48'510.4
2017-Nov-15 10:00N 57°44' E 010°55'510.6
2017-Nov-15 09:29N 57°40' E 011°02'511.3
2017-Nov-15 09:00N 57°36' E 011°10'611.6
2017-Nov-15 08:30N 57°32' E 011°18'611.3
2017-Nov-15 08:00N 57°28' E 011°26'611.5
2017-Nov-15 07:30N 57°23' E 011°29'611.6
2017-Nov-15 06:59N 57°17' E 011°33'611.6
2017-Nov-15 06:30N 57°12' E 011°37'611.4
2017-Nov-15 06:00N 57°07' E 011°40'611.3
2017-Nov-15 05:30N 57°01' E 011°43'10210.6
2017-Nov-14 19:52N 55°22' E 011°02'511.6
2017-Nov-14 19:27N 55°17' E 011°04'511.8
2017-Nov-14 19:00N 55°12' E 011°06'611.9
2017-Nov-14 18:30N 55°07' E 011°03'612.2
2017-Nov-14 18:00N 55°01' E 010°59'612.1
2017-Nov-14 17:30N 54°56' E 010°53'5 9.3
2017-Nov-14 17:00N 54°52' E 010°50'612.7
2017-Nov-14 16:30N 54°45' E 010°48'510.5
2017-Nov-14 16:00N 54°40' E 010°48'510.8
2017-Nov-14 15:30N 54°38' E 010°56'510.1
2017-Nov-14 15:00N 54°36' E 011°05'5 9.6
2017-Nov-14 14:30N 54°36' E 011°13'5 9.9
2017-Nov-14 14:00N 54°33' E 011°20'510.1
2017-Nov-14 13:30N 54°31' E 011°28'5 9.9
2017-Nov-14 13:00N 54°29' E 011°36'510.2
2017-Nov-14 12:28N 54°27' E 011°45'510.0
2017-Nov-14 12:00N 54°27' E 011°53'1010.0
2017-Nov-14 11:01N 54°27' E 012°10'0 9.7
2017-Nov-14 11:00N 54°27' E 012°10'510.0
2017-Nov-14 10:29N 54°31' E 012°14'5 9.5
2017-Nov-14 10:00N 54°36' E 012°16'19 9.2
2017-Nov-14 07:58N 54°46' E 012°43'3211.5
2017-Nov-14 05:12N 54°58' E 013°34'411.9
2017-Nov-14 04:50N 54°59' E 013°41'612.0
2017-Nov-14 04:18N 55°01' E 013°52'611.9
2017-Nov-14 03:49N 55°03' E 014°01'511.7
2017-Nov-14 03:26N 55°07' E 014°07'512.2
2017-Nov-14 03:00N 55°11' E 014°13'612.6
2017-Nov-14 02:30N 55°15' E 014°20'612.8
2017-Nov-14 02:00N 55°21' E 014°26'612.2
2017-Nov-14 01:30N 55°25' E 014°34'611.9
2017-Nov-14 01:00N 55°28' E 014°43'712.3
2017-Nov-14 00:27N 55°31' E 014°54'612.4
2017-Nov-14 00:00N 55°33' E 015°03'612.5
2017-Nov-13 23:30N 55°36' E 015°13'612.4
2017-Nov-13 23:00N 55°39' E 015°22'612.3
2017-Nov-13 22:30N 55°40' E 015°33'612.6
2017-Nov-13 22:00N 55°42' E 015°44'  
Track history (hours):
 
Tides and Currents Weather Stations Pressure Air Temp Water Temp Dewpoint Dewpoint Depression Visibility Wind Speed Wind Dir Waves Ship Positions

Pearl Venus

Last reported at 2017-Nov-18 20:15 UTC. Time now 2017-Nov-21 01:06 UTC.
Position N 47°06' W 007°14'.

Length 190 m; draft 9.6 m.

Type: Cargo ship. MMSI: 355236000.

Date/timePositionNaut miles runAvg speedWind from/ knotsBaromVisibWave heightAir tempDewpointWater temp
2017-Nov-18 20:15N 47°06' W 007°14'612.7
2017-Nov-18 19:45N 47°11' W 007°10'1912.7
2017-Nov-18 18:14N 47°28' W 006°56'1514.3
2017-Nov-18 17:10N 47°42' W 006°45'1911.5
2017-Nov-18 15:29N 47°59' W 006°31'611.4
2017-Nov-18 14:56N 48°04' W 006°27'511.1
2017-Nov-18 14:30N 48°09' W 006°24'611.2
2017-Nov-18 14:00N 48°13' W 006°20'611.3
2017-Nov-18 13:30N 48°18' W 006°16'1011.7
2017-Nov-18 12:40N 48°27' W 006°09'412.2
2017-Nov-18 12:22N 48°31' W 006°06'512.6
2017-Nov-18 11:59N 48°35' W 006°03'713.1
2017-Nov-18 11:27N 48°41' W 005°58'1013.3
2017-Nov-18 10:41N 48°50' W 005°50'613.9
2017-Nov-18 10:15N 48°55' W 005°45'714.1
2017-Nov-18 09:43N 48°59' W 005°36'414.2
2017-Nov-18 09:27N 49°02' W 005°32'614.0
2017-Nov-18 08:59N 49°05' W 005°24'913.6
2017-Nov-18 08:21N 49°10' W 005°13'1012.9
2017-Nov-18 07:35N 49°16' W 005°01'112.6
2017-Nov-18 07:30N 49°17' W 004°59'612.2
2017-Nov-18 07:00N 49°20' W 004°51'611.8
2017-Nov-18 06:31N 49°22' W 004°43'611.3
2017-Nov-18 05:57N 49°25' W 004°34'511.1
2017-Nov-18 05:28N 49°28' W 004°27'510.7
2017-Nov-18 04:59N 49°30' W 004°20'610.7
2017-Nov-18 04:27N 49°33' W 004°12'610.8
2017-Nov-18 03:55N 49°36' W 004°04'511.2
2017-Nov-18 03:30N 49°38' W 003°58'611.6
2017-Nov-18 02:58N 49°41' W 003°50'612.1
2017-Nov-18 02:30N 49°43' W 003°42'712.7
2017-Nov-18 01:59N 49°46' W 003°33'713.4
2017-Nov-18 01:30N 49°50' W 003°24'713.9
2017-Nov-18 01:00N 49°53' W 003°15'714.2
2017-Nov-18 00:30N 49°56' W 003°05'714.2
2017-Nov-18 00:00N 49°59' W 002°55'714.0
2017-Nov-17 23:30N 50°01' W 002°45'713.5
2017-Nov-17 23:00N 50°03' W 002°35'1812.1
2017-Nov-17 21:33N 50°08' W 002°08'010.7
2017-Nov-17 21:30N 50°08' W 002°07'510.5
2017-Nov-17 21:00N 50°08' W 001°59'5 9.9
2017-Nov-17 20:30N 50°10' W 001°52'5 9.4
2017-Nov-17 19:59N 50°11' W 001°45'4 9.1
2017-Nov-17 19:30N 50°12' W 001°38'5 9.1
2017-Nov-17 19:00N 50°14' W 001°31'5 9.3
2017-Nov-17 18:30N 50°15' W 001°24'1510.6
2017-Nov-17 17:07N 50°19' W 001°02'212.3
2017-Nov-17 16:58N 50°19' W 000°59'613.0
2017-Nov-17 16:28N 50°22' W 000°50'1513.7
2017-Nov-17 15:21N 50°26' W 000°27'514.0
2017-Nov-17 15:00N 50°27' W 000°19'714.0
2017-Nov-17 14:30N 50°29' W 000°08'714.0
2017-Nov-17 14:00N 50°30' E 000°02'714.0
2017-Nov-17 13:30N 50°32' E 000°13'713.9
2017-Nov-17 13:00N 50°34' E 000°23'713.6
2017-Nov-17 12:30N 50°36' E 000°33'713.2
2017-Nov-17 12:00N 50°40' E 000°42'612.7
2017-Nov-17 11:30N 50°43' E 000°51'612.1
2017-Nov-17 11:00N 50°46' E 000°59'611.7
2017-Nov-17 10:30N 50°50' E 001°06'611.6
2017-Nov-17 10:00N 50°53' E 001°14'611.9
2017-Nov-17 09:30N 50°57' E 001°21'613.0
2017-Nov-17 09:00N 51°02' E 001°27'714.2
2017-Nov-17 08:30N 51°07' E 001°36'714.7
2017-Nov-17 08:00N 51°12' E 001°44'815.3
2017-Nov-17 07:30N 51°19' E 001°50'815.1
2017-Nov-17 07:00N 51°25' E 001°56'714.6
2017-Nov-17 06:30N 51°31' E 002°04'714.2
2017-Nov-17 06:00N 51°36' E 002°12'713.7
2017-Nov-17 05:30N 51°41' E 002°19'41611.3
2017-Nov-15 16:51N 57°29' E 008°51'410.6
2017-Nov-15 16:30N 57°31' E 008°57'510.4
2017-Nov-15 15:59N 57°34' E 009°05'510.6
2017-Nov-15 15:29N 57°36' E 009°14'510.8
2017-Nov-15 15:00N 57°39' E 009°22'3110.9
2017-Nov-15 12:09N 57°49' E 010°17'210.4
2017-Nov-15 11:58N 57°49' E 010°21'510.1
2017-Nov-15 11:30N 57°49' E 010°30'510.0
2017-Nov-15 11:00N 57°49' E 010°39'5 9.7
2017-Nov-15 10:30N 57°47' E 010°48'510.4
2017-Nov-15 10:00N 57°44' E 010°55'510.6
2017-Nov-15 09:29N 57°40' E 011°02'511.3
2017-Nov-15 09:00N 57°36' E 011°10'611.6
2017-Nov-15 08:30N 57°32' E 011°18'611.3
2017-Nov-15 08:00N 57°28' E 011°26'611.5
2017-Nov-15 07:30N 57°23' E 011°29'611.6
2017-Nov-15 06:59N 57°17' E 011°33'611.6
2017-Nov-15 06:30N 57°12' E 011°37'611.4
2017-Nov-15 06:00N 57°07' E 011°40'611.3
2017-Nov-15 05:30N 57°01' E 011°43'10210.6
2017-Nov-14 19:52N 55°22' E 011°02'511.6
2017-Nov-14 19:27N 55°17' E 011°04'511.8
2017-Nov-14 19:00N 55°12' E 011°06'611.9
2017-Nov-14 18:30N 55°07' E 011°03'612.2
2017-Nov-14 18:00N 55°01' E 010°59'612.1
2017-Nov-14 17:30N 54°56' E 010°53'5 9.3
2017-Nov-14 17:00N 54°52' E 010°50'612.7
2017-Nov-14 16:30N 54°45' E 010°48'510.5
2017-Nov-14 16:00N 54°40' E 010°48'510.8
2017-Nov-14 15:30N 54°38' E 010°56'510.1
2017-Nov-14 15:00N 54°36' E 011°05'5 9.6
2017-Nov-14 14:30N 54°36' E 011°13'5 9.9
2017-Nov-14 14:00N 54°33' E 011°20'510.1
2017-Nov-14 13:30N 54°31' E 011°28'5 9.9
2017-Nov-14 13:00N 54°29' E 011°36'510.2
2017-Nov-14 12:28N 54°27' E 011°45'510.0
2017-Nov-14 12:00N 54°27' E 011°53'1010.0
2017-Nov-14 11:01N 54°27' E 012°10'0 9.7
2017-Nov-14 11:00N 54°27' E 012°10'510.0
2017-Nov-14 10:29N 54°31' E 012°14'5 9.5
2017-Nov-14 10:00N 54°36' E 012°16'19 9.2
2017-Nov-14 07:58N 54°46' E 012°43'3211.5
2017-Nov-14 05:12N 54°58' E 013°34'411.9
2017-Nov-14 04:50N 54°59' E 013°41'612.0
2017-Nov-14 04:18N 55°01' E 013°52'611.9
2017-Nov-14 03:49N 55°03' E 014°01'511.7
2017-Nov-14 03:26N 55°07' E 014°07'512.2
2017-Nov-14 03:00N 55°11' E 014°13'612.6
2017-Nov-14 02:30N 55°15' E 014°20'612.8
2017-Nov-14 02:00N 55°21' E 014°26'612.2
2017-Nov-14 01:30N 55°25' E 014°34'611.9
2017-Nov-14 01:00N 55°28' E 014°43'712.3
2017-Nov-14 00:27N 55°31' E 014°54'612.4
2017-Nov-14 00:00N 55°33' E 015°03'612.5
2017-Nov-13 23:30N 55°36' E 015°13'612.4
2017-Nov-13 23:00N 55°39' E 015°22'612.3
2017-Nov-13 22:30N 55°40' E 015°33'612.6
2017-Nov-13 22:00N 55°42' E 015°44'  

Dump ship's entire track history